PUA2603 SCTE-SUMU
Flight info
| Callsign | PUA2603 |
|---|---|
| Flight time | 2h 7m |
| Altitude | 39000 |
| Route | CALBU2B CALBU UM658 BAR UZ109 ISMIL UT655 ASADA UM424 TOKAM |
| Aircraft | A20N/M-SDE2E3FGHIRWXY/LB1 |
Departure
| Time | 2026-05-06 01:28 |
|---|---|
| Airport | El Tepual International Airport (SCTE) |
Arrival
| Time | 2026-05-06 03:36 |
|---|---|
| Airport | Carrasco General Cesáreo L. Berisso International Airport (SUMU) |
| Time | Latitude | Longitude | Altitude | Speed | Heading |
|---|---|---|---|---|---|
| 2026-05-06 01:28 | -41.48766 | -73.11742 | 3191 ft | 199 kts | 259° |
| 2026-05-06 01:28 | -41.48672 | -73.13628 | 3692 ft | 208 kts | 296° |
| 2026-05-06 01:29 | -41.47743 | -73.15129 | 4127 ft | 220 kts | 333° |
| 2026-05-06 01:29 | -41.46253 | -73.15582 | 4609 ft | 232 kts | 10° |
| 2026-05-06 01:29 | -41.44776 | -73.14606 | 5172 ft | 249 kts | 46° |
| 2026-05-06 01:29 | -41.43884 | -73.12557 | 5906 ft | 263 kts | 65° |
| 2026-05-06 01:30 | -41.43256 | -73.10249 | 6740 ft | 271 kts | 68° |
| 2026-05-06 01:30 | -41.42692 | -73.07803 | 7538 ft | 280 kts | 72° |
| 2026-05-06 01:30 | -41.42276 | -73.05274 | 8323 ft | 288 kts | 75° |
| 2026-05-06 01:30 | -41.41878 | -73.02616 | 9109 ft | 294 kts | 75° |
| 2026-05-06 01:31 | -41.41482 | -72.99955 | 9870 ft | 300 kts | 75° |
| 2026-05-06 01:31 | -41.41066 | -72.97199 | 10587 ft | 308 kts | 75° |
| 2026-05-06 01:31 | -41.40637 | -72.94381 | 11164 ft | 319 kts | 75° |
| 2026-05-06 01:31 | -41.40185 | -72.91439 | 11901 ft | 325 kts | 75° |
| 2026-05-06 01:32 | -41.39733 | -72.88490 | 12648 ft | 329 kts | 75° |
| 2026-05-06 01:32 | -41.39277 | -72.85527 | 13350 ft | 334 kts | 74° |
| 2026-05-06 01:32 | -41.38806 | -72.82473 | 14060 ft | 338 kts | 73° |
| 2026-05-06 01:32 | -41.38330 | -72.79415 | 14756 ft | 343 kts | 74° |
| 2026-05-06 01:33 | -41.37843 | -72.76288 | 15447 ft | 346 kts | 75° |
| 2026-05-06 01:33 | -41.37358 | -72.73186 | 16129 ft | 349 kts | 74° |
| 2026-05-06 01:33 | -41.36861 | -72.69996 | 16794 ft | 352 kts | 74° |
| 2026-05-06 01:33 | -41.36362 | -72.66806 | 17392 ft | 356 kts | 73° |
| 2026-05-06 01:34 | -41.35891 | -72.63555 | 17954 ft | 361 kts | 77° |
| 2026-05-06 01:34 | -41.35582 | -72.60223 | 18575 ft | 366 kts | 81° |
| 2026-05-06 01:34 | -41.35307 | -72.56892 | 19200 ft | 368 kts | 79° |
| 2026-05-06 01:34 | -41.34991 | -72.53461 | 19801 ft | 371 kts | 77° |
| 2026-05-06 01:35 | -41.34525 | -72.50123 | 20418 ft | 372 kts | 74° |
| 2026-05-06 01:35 | -41.33982 | -72.46732 | 21008 ft | 375 kts | 73° |
| 2026-05-06 01:35 | -41.33430 | -72.43328 | 21599 ft | 378 kts | 73° |
| 2026-05-06 01:35 | -41.32881 | -72.39924 | 22151 ft | 382 kts | 73° |
| 2026-05-06 01:36 | -41.32328 | -72.36449 | 22713 ft | 386 kts | 74° |
| 2026-05-06 01:36 | -41.31776 | -72.32955 | 23291 ft | 389 kts | 73° |
| 2026-05-06 01:36 | -41.31223 | -72.29436 | 23860 ft | 392 kts | 73° |
| 2026-05-06 01:36 | -41.30668 | -72.25899 | 24411 ft | 395 kts | 73° |
| 2026-05-06 01:37 | -41.30101 | -72.22305 | 24925 ft | 398 kts | 73° |
| 2026-05-06 01:37 | -41.29533 | -72.18698 | 25424 ft | 402 kts | 72° |
| 2026-05-06 01:37 | -41.28954 | -72.15012 | 25908 ft | 406 kts | 72° |
| 2026-05-06 01:37 | -41.28370 | -72.11334 | 26389 ft | 410 kts | 72° |
| 2026-05-06 01:38 | -41.27785 | -72.07641 | 26878 ft | 413 kts | 72° |
| 2026-05-06 01:38 | -41.27189 | -72.03888 | 27365 ft | 416 kts | 72° |
| 2026-05-06 01:38 | -41.26592 | -72.00146 | 27818 ft | 419 kts | 71° |
| 2026-05-06 01:38 | -41.25988 | -71.96364 | 28275 ft | 421 kts | 71° |
| 2026-05-06 01:39 | -41.25372 | -71.92516 | 28719 ft | 423 kts | 71° |
| 2026-05-06 01:39 | -41.24759 | -71.88692 | 29099 ft | 426 kts | 71° |
| 2026-05-06 01:39 | -41.24144 | -71.84866 | 29487 ft | 429 kts | 71° |
| 2026-05-06 01:39 | -41.23542 | -71.80962 | 29891 ft | 431 kts | 72° |
| 2026-05-06 01:40 | -41.22951 | -71.77039 | 30257 ft | 433 kts | 72° |
| 2026-05-06 01:40 | -41.22366 | -71.73144 | 30612 ft | 435 kts | 72° |
| 2026-05-06 01:40 | -41.21777 | -71.69231 | 30928 ft | 437 kts | 71° |
| 2026-05-06 01:40 | -41.21172 | -71.65247 | 31183 ft | 441 kts | 71° |
| 2026-05-06 01:41 | -41.20564 | -71.61256 | 31429 ft | 444 kts | 71° |
| 2026-05-06 01:41 | -41.19951 | -71.57240 | 31693 ft | 447 kts | 71° |
| 2026-05-06 01:41 | -41.19333 | -71.53187 | 31969 ft | 450 kts | 72° |
| 2026-05-06 01:41 | -41.18707 | -71.49098 | 32246 ft | 452 kts | 71° |
| 2026-05-06 01:42 | -41.18079 | -71.45013 | 32553 ft | 453 kts | 71° |
| 2026-05-06 01:42 | -41.17455 | -71.40965 | 32773 ft | 456 kts | 71° |
| 2026-05-06 01:42 | -41.16805 | -71.36778 | 32980 ft | 459 kts | 71° |
| 2026-05-06 01:42 | -41.16167 | -71.32657 | 33216 ft | 461 kts | 70° |
| 2026-05-06 01:43 | -41.15478 | -71.28520 | 33466 ft | 459 kts | 67° |
| 2026-05-06 01:43 | -41.14540 | -71.24501 | 33664 ft | 455 kts | 61° |
| 2026-05-06 01:43 | -41.13322 | -71.20627 | 33879 ft | 450 kts | 55° |
| 2026-05-06 01:43 | -41.11882 | -71.17049 | 34118 ft | 444 kts | 49° |
| 2026-05-06 01:44 | -41.10163 | -71.13601 | 34342 ft | 439 kts | 44° |
| 2026-05-06 01:44 | -41.08287 | -71.10502 | 34543 ft | 433 kts | 38° |
| 2026-05-06 01:44 | -41.06259 | -71.07535 | 34767 ft | 432 kts | 37° |
| 2026-05-06 01:44 | -41.04218 | -71.04610 | 34917 ft | 431 kts | 38° |
| 2026-05-06 01:45 | -41.02185 | -71.01698 | 35066 ft | 431 kts | 38° |
| 2026-05-06 01:45 | -41.00149 | -70.98774 | 35170 ft | 433 kts | 38° |
| 2026-05-06 01:45 | -40.96099 | -70.92934 | 35339 ft | 437 kts | 38° |
| 2026-05-06 01:46 | -40.94044 | -70.89964 | 35467 ft | 437 kts | 38° |
| 2026-05-06 01:46 | -40.91974 | -70.86970 | 35592 ft | 437 kts | 39° |
| 2026-05-06 01:46 | -40.89943 | -70.84035 | 35739 ft | 436 kts | 39° |
| 2026-05-06 01:46 | -40.87882 | -70.81062 | 35897 ft | 437 kts | 39° |
| 2026-05-06 01:47 | -40.85844 | -70.78126 | 36033 ft | 438 kts | 39° |
| 2026-05-06 01:47 | -40.83785 | -70.75162 | 36168 ft | 440 kts | 39° |
| 2026-05-06 01:47 | -40.81716 | -70.72186 | 36360 ft | 440 kts | 39° |
| 2026-05-06 01:47 | -40.79674 | -70.69247 | 36544 ft | 441 kts | 39° |
| 2026-05-06 01:48 | -40.77586 | -70.66248 | 36712 ft | 441 kts | 39° |
| 2026-05-06 01:48 | -40.75530 | -70.63301 | 36914 ft | 441 kts | 39° |
| 2026-05-06 01:48 | -40.73451 | -70.60323 | 37097 ft | 441 kts | 39° |
| 2026-05-06 01:48 | -40.71366 | -70.57345 | 37220 ft | 443 kts | 39° |
| 2026-05-06 01:49 | -40.69271 | -70.54353 | 37368 ft | 444 kts | 40° |
| 2026-05-06 01:49 | -40.67194 | -70.51384 | 37538 ft | 444 kts | 40° |
| 2026-05-06 01:49 | -40.65104 | -70.48404 | 37695 ft | 445 kts | 40° |
| 2026-05-06 01:49 | -40.63011 | -70.45418 | 37886 ft | 444 kts | 40° |
| 2026-05-06 01:50 | -40.60949 | -70.42430 | 38034 ft | 447 kts | 41° |
| 2026-05-06 01:50 | -40.58967 | -70.39256 | 38140 ft | 452 kts | 45° |
| 2026-05-06 01:50 | -40.57076 | -70.35971 | 38272 ft | 453 kts | 46° |
| 2026-05-06 01:50 | -40.55172 | -70.32622 | 38404 ft | 454 kts | 45° |
| 2026-05-06 01:51 | -40.53307 | -70.29342 | 38570 ft | 453 kts | 45° |
| 2026-05-06 01:51 | -40.51416 | -70.26022 | 38682 ft | 454 kts | 45° |
| 2026-05-06 01:51 | -40.49529 | -70.22719 | 38789 ft | 454 kts | 45° |
| 2026-05-06 01:51 | -40.47644 | -70.19424 | 38857 ft | 456 kts | 45° |
| 2026-05-06 01:52 | -40.43823 | -70.12760 | 38843 ft | 459 kts | 45° |
| 2026-05-06 01:52 | -40.39982 | -70.06076 | 38850 ft | 459 kts | 45° |
| 2026-05-06 01:53 | -40.36136 | -69.99402 | 38836 ft | 460 kts | 45° |
| 2026-05-06 01:53 | -40.32301 | -69.92759 | 38836 ft | 461 kts | 45° |
| 2026-05-06 01:54 | -40.28426 | -69.86059 | 38836 ft | 461 kts | 45° |
| 2026-05-06 01:54 | -40.24564 | -69.79391 | 38851 ft | 460 kts | 45° |
| 2026-05-06 01:55 | -40.20708 | -69.72760 | 38852 ft | 460 kts | 45° |
| 2026-05-06 01:55 | -40.16847 | -69.66129 | 38855 ft | 461 kts | 45° |
| 2026-05-06 01:56 | -40.12970 | -69.59491 | 38857 ft | 462 kts | 45° |
| 2026-05-06 01:56 | -40.09069 | -69.52814 | 38873 ft | 461 kts | 45° |
| 2026-05-06 01:57 | -40.05198 | -69.46208 | 38858 ft | 462 kts | 45° |
| 2026-05-06 01:57 | -40.01306 | -69.39579 | 38872 ft | 461 kts | 45° |
| 2026-05-06 01:58 | -39.97403 | -69.32943 | 38874 ft | 460 kts | 44° |
| 2026-05-06 01:58 | -39.93522 | -69.26363 | 38906 ft | 461 kts | 44° |
| 2026-05-06 01:59 | -39.89611 | -69.19742 | 38904 ft | 460 kts | 44° |
| 2026-05-06 01:59 | -39.85718 | -69.13168 | 38891 ft | 459 kts | 44° |
| 2026-05-06 02:00 | -39.81853 | -69.06657 | 38914 ft | 460 kts | 44° |
| 2026-05-06 02:00 | -39.77974 | -69.00129 | 38910 ft | 459 kts | 44° |
| 2026-05-06 02:01 | -39.74095 | -68.93623 | 38893 ft | 459 kts | 44° |
| 2026-05-06 02:01 | -39.70202 | -68.87101 | 38920 ft | 459 kts | 44° |
| 2026-05-06 02:02 | -39.66318 | -68.80606 | 38907 ft | 460 kts | 44° |
| 2026-05-06 02:02 | -39.62387 | -68.74046 | 38894 ft | 459 kts | 43° |
| 2026-05-06 02:03 | -39.58474 | -68.67539 | 38905 ft | 461 kts | 43° |
| 2026-05-06 02:03 | -39.54552 | -68.61021 | 38892 ft | 459 kts | 43° |
| 2026-05-06 02:04 | -39.50624 | -68.54508 | 38907 ft | 459 kts | 43° |
| 2026-05-06 02:04 | -39.46707 | -68.48029 | 38923 ft | 460 kts | 43° |
| 2026-05-06 02:05 | -39.42782 | -68.41541 | 38907 ft | 459 kts | 43° |
| 2026-05-06 02:05 | -39.38856 | -68.35068 | 38912 ft | 458 kts | 43° |
| 2026-05-06 02:06 | -39.34925 | -68.28603 | 38906 ft | 458 kts | 42° |
| 2026-05-06 02:06 | -39.30988 | -68.22156 | 38907 ft | 460 kts | 42° |
| 2026-05-06 02:07 | -39.27030 | -68.15685 | 38904 ft | 460 kts | 42° |
| 2026-05-06 02:07 | -39.23066 | -68.09206 | 38895 ft | 460 kts | 41° |
| 2026-05-06 02:08 | -39.19103 | -68.02743 | 38898 ft | 461 kts | 41° |
| 2026-05-06 02:08 | -39.15106 | -67.96240 | 38878 ft | 460 kts | 41° |
| 2026-05-06 02:09 | -39.11142 | -67.89799 | 38892 ft | 460 kts | 41° |
| 2026-05-06 02:09 | -39.07147 | -67.83322 | 38890 ft | 459 kts | 41° |
| 2026-05-06 02:10 | -39.03145 | -67.76852 | 38891 ft | 460 kts | 41° |
| 2026-05-06 02:10 | -38.99146 | -67.70398 | 38886 ft | 459 kts | 41° |
| 2026-05-06 02:11 | -38.95157 | -67.63971 | 38888 ft | 460 kts | 41° |
| 2026-05-06 02:11 | -38.91143 | -67.57519 | 38891 ft | 460 kts | 41° |
| 2026-05-06 02:12 | -38.87116 | -67.51058 | 38896 ft | 461 kts | 41° |
| 2026-05-06 02:12 | -38.83121 | -67.44659 | 38895 ft | 461 kts | 41° |
| 2026-05-06 02:13 | -38.79097 | -67.38223 | 38900 ft | 460 kts | 41° |
| 2026-05-06 02:13 | -38.74662 | -67.31151 | 38904 ft | 460 kts | 41° |
| 2026-05-06 02:14 | -38.70660 | -67.24782 | 38900 ft | 462 kts | 41° |
| 2026-05-06 02:14 | -38.66615 | -67.18356 | 38903 ft | 461 kts | 41° |
| 2026-05-06 02:15 | -38.62613 | -67.12011 | 38905 ft | 461 kts | 41° |
| 2026-05-06 02:15 | -38.58595 | -67.05653 | 38907 ft | 461 kts | 41° |
| 2026-05-06 02:16 | -38.54534 | -66.99239 | 38908 ft | 461 kts | 41° |
| 2026-05-06 02:16 | -38.50512 | -66.92896 | 38905 ft | 460 kts | 41° |
| 2026-05-06 02:17 | -38.46474 | -66.86543 | 38905 ft | 461 kts | 41° |
| 2026-05-06 02:17 | -38.42400 | -66.80145 | 38906 ft | 463 kts | 41° |
| 2026-05-06 02:18 | -38.38334 | -66.73768 | 38912 ft | 462 kts | 40° |
| 2026-05-06 02:18 | -38.34353 | -66.67241 | 38906 ft | 470 kts | 46° |
| 2026-05-06 02:19 | -38.30915 | -66.60036 | 38904 ft | 479 kts | 53° |
| 2026-05-06 02:19 | -38.27763 | -66.52490 | 38904 ft | 480 kts | 53° |
| 2026-05-06 02:20 | -38.23037 | -66.41222 | 38904 ft | 481 kts | 53° |
| 2026-05-06 02:21 | -38.19866 | -66.33730 | 38955 ft | 482 kts | 52° |
| 2026-05-06 02:21 | -38.16679 | -66.26218 | 38916 ft | 482 kts | 52° |
| 2026-05-06 02:22 | -38.13494 | -66.18732 | 38910 ft | 481 kts | 52° |
| 2026-05-06 02:22 | -38.10306 | -66.11265 | 38912 ft | 481 kts | 52° |
| 2026-05-06 02:23 | -38.07109 | -66.03792 | 38908 ft | 482 kts | 52° |
| 2026-05-06 02:23 | -38.03896 | -65.96298 | 38909 ft | 483 kts | 52° |
| 2026-05-06 02:24 | -38.00657 | -65.88763 | 38909 ft | 484 kts | 52° |
| 2026-05-06 02:24 | -37.97436 | -65.81282 | 38910 ft | 484 kts | 52° |
| 2026-05-06 02:25 | -37.94189 | -65.73760 | 38912 ft | 486 kts | 52° |
| 2026-05-06 02:25 | -37.90933 | -65.66242 | 38916 ft | 489 kts | 52° |
| 2026-05-06 02:26 | -37.87631 | -65.58624 | 38923 ft | 488 kts | 52° |
| 2026-05-06 02:26 | -37.84363 | -65.51106 | 38925 ft | 490 kts | 52° |
| 2026-05-06 02:27 | -37.81056 | -65.43524 | 38924 ft | 491 kts | 52° |
| 2026-05-06 02:27 | -37.77753 | -65.35955 | 38924 ft | 490 kts | 52° |
| 2026-05-06 02:28 | -37.74428 | -65.28364 | 38921 ft | 491 kts | 52° |
| 2026-05-06 02:28 | -37.71111 | -65.20816 | 38923 ft | 493 kts | 52° |
| 2026-05-06 02:29 | -37.67765 | -65.13202 | 38925 ft | 493 kts | 51° |
| 2026-05-06 02:29 | -37.64455 | -65.05690 | 38928 ft | 492 kts | 52° |
| 2026-05-06 02:30 | -37.61119 | -64.98145 | 38928 ft | 493 kts | 51° |
| 2026-05-06 02:30 | -37.57773 | -64.90598 | 38944 ft | 494 kts | 51° |
| 2026-05-06 02:31 | -37.54429 | -64.83070 | 38943 ft | 496 kts | 52° |
| 2026-05-06 02:31 | -37.51078 | -64.75532 | 38942 ft | 496 kts | 52° |
| 2026-05-06 02:32 | -37.47678 | -64.67915 | 38942 ft | 497 kts | 51° |
| 2026-05-06 02:32 | -37.44309 | -64.60383 | 38942 ft | 499 kts | 52° |
| 2026-05-06 02:33 | -37.40897 | -64.52766 | 38942 ft | 498 kts | 52° |
| 2026-05-06 02:33 | -37.39769 | -64.50246 | 38942 ft | 498 kts | 52° |
| 2026-05-06 02:34 | -37.34097 | -64.37637 | 38940 ft | 499 kts | 52° |
| 2026-05-06 02:34 | -37.30687 | -64.30153 | 38944 ft | 497 kts | 51° |
| 2026-05-06 02:35 | -37.27222 | -64.22609 | 38943 ft | 498 kts | 51° |
| 2026-05-06 02:35 | -37.23777 | -64.15103 | 38944 ft | 498 kts | 51° |
| 2026-05-06 02:36 | -37.20327 | -64.07600 | 38935 ft | 499 kts | 51° |
| 2026-05-06 02:36 | -37.16883 | -64.00127 | 38931 ft | 499 kts | 51° |
| 2026-05-06 02:37 | -37.13413 | -63.92611 | 38923 ft | 499 kts | 51° |
| 2026-05-06 02:37 | -37.09934 | -63.85086 | 38923 ft | 499 kts | 51° |
| 2026-05-06 02:38 | -37.06441 | -63.77555 | 38924 ft | 500 kts | 51° |
| 2026-05-06 02:38 | -37.02923 | -63.69993 | 38924 ft | 502 kts | 51° |
| 2026-05-06 02:39 | -36.99383 | -63.62407 | 38926 ft | 509 kts | 51° |
| 2026-05-06 02:39 | -36.95810 | -63.54761 | 38923 ft | 516 kts | 52° |
| 2026-05-06 02:40 | -36.92170 | -63.46979 | 38924 ft | 522 kts | 52° |
| 2026-05-06 02:40 | -36.88491 | -63.39143 | 38919 ft | 527 kts | 52° |
| 2026-05-06 02:41 | -36.84795 | -63.31278 | 38917 ft | 530 kts | 51° |
| 2026-05-06 02:41 | -36.81043 | -63.23318 | 38916 ft | 531 kts | 51° |
| 2026-05-06 02:42 | -36.77293 | -63.15379 | 38920 ft | 532 kts | 51° |
| 2026-05-06 02:42 | -36.73539 | -63.07452 | 38912 ft | 532 kts | 51° |
| 2026-05-06 02:43 | -36.69780 | -62.99538 | 38919 ft | 533 kts | 51° |
| 2026-05-06 02:43 | -36.66025 | -62.91646 | 38916 ft | 533 kts | 51° |
| 2026-05-06 02:44 | -36.62230 | -62.83694 | 38922 ft | 534 kts | 51° |
| 2026-05-06 02:44 | -36.58446 | -62.75780 | 38924 ft | 534 kts | 51° |
| 2026-05-06 02:45 | -36.54633 | -62.67832 | 38925 ft | 537 kts | 52° |
| 2026-05-06 02:45 | -36.50824 | -62.59895 | 38925 ft | 535 kts | 52° |
| 2026-05-06 02:46 | -36.47010 | -62.51979 | 38936 ft | 537 kts | 51° |
| 2026-05-06 02:46 | -36.43163 | -62.44011 | 38944 ft | 538 kts | 52° |
| 2026-05-06 02:47 | -36.39317 | -62.36061 | 38941 ft | 538 kts | 52° |
| 2026-05-06 02:47 | -36.35476 | -62.28138 | 38933 ft | 538 kts | 51° |
| 2026-05-06 02:48 | -36.31641 | -62.20244 | 38936 ft | 537 kts | 51° |
| 2026-05-06 02:48 | -36.27785 | -62.12331 | 38952 ft | 536 kts | 51° |
| 2026-05-06 02:49 | -36.23925 | -62.04432 | 38948 ft | 537 kts | 51° |
| 2026-05-06 02:49 | -36.20073 | -61.96553 | 38946 ft | 537 kts | 51° |
| 2026-05-06 02:50 | -36.16191 | -61.88644 | 38933 ft | 538 kts | 52° |
| 2026-05-06 02:50 | -36.12314 | -61.80754 | 38935 ft | 540 kts | 52° |
| 2026-05-06 02:51 | -36.08424 | -61.72854 | 38950 ft | 540 kts | 52° |
| 2026-05-06 02:51 | -36.04518 | -61.64932 | 38940 ft | 539 kts | 52° |
| 2026-05-06 02:52 | -36.00627 | -61.57053 | 38950 ft | 539 kts | 51° |
| 2026-05-06 02:52 | -35.96720 | -61.49162 | 38950 ft | 540 kts | 52° |
| 2026-05-06 02:53 | -35.92828 | -61.41313 | 38946 ft | 541 kts | 52° |
| 2026-05-06 02:53 | -35.88881 | -61.33369 | 38946 ft | 542 kts | 51° |
| 2026-05-06 02:54 | -35.84962 | -61.25464 | 38957 ft | 541 kts | 52° |
| 2026-05-06 02:54 | -35.81074 | -61.17610 | 38952 ft | 540 kts | 52° |
| 2026-05-06 02:55 | -35.77170 | -61.09738 | 38948 ft | 541 kts | 51° |
| 2026-05-06 02:55 | -35.73228 | -61.01802 | 38949 ft | 541 kts | 52° |
| 2026-05-06 02:56 | -35.69304 | -60.93919 | 38959 ft | 541 kts | 52° |
| 2026-05-06 02:56 | -35.65367 | -60.86037 | 38945 ft | 542 kts | 52° |
| 2026-05-06 02:57 | -35.61422 | -60.78152 | 38952 ft | 542 kts | 52° |
| 2026-05-06 02:57 | -35.57449 | -60.70235 | 38956 ft | 543 kts | 52° |
| 2026-05-06 02:58 | -35.53449 | -60.62275 | 38957 ft | 543 kts | 52° |
| 2026-05-06 02:58 | -35.49464 | -60.54362 | 38953 ft | 543 kts | 52° |
| 2026-05-06 02:59 | -35.45511 | -60.46530 | 38955 ft | 543 kts | 52° |
| 2026-05-06 02:59 | -35.41531 | -60.38668 | 38954 ft | 543 kts | 52° |
| 2026-05-06 03:00 | -35.37553 | -60.30825 | 38947 ft | 543 kts | 52° |
| 2026-05-06 03:00 | -35.33582 | -60.23011 | 38946 ft | 542 kts | 52° |
| 2026-05-06 03:01 | -35.29595 | -60.15188 | 38951 ft | 542 kts | 52° |
| 2026-05-06 03:01 | -35.25612 | -60.07393 | 38952 ft | 543 kts | 52° |
| 2026-05-06 03:02 | -35.21622 | -59.99587 | 38950 ft | 542 kts | 52° |
| 2026-05-06 03:02 | -35.17618 | -59.91773 | 38952 ft | 541 kts | 52° |
| 2026-05-06 03:03 | -35.13615 | -59.83977 | 38963 ft | 542 kts | 52° |
| 2026-05-06 03:03 | -35.09607 | -59.76194 | 38969 ft | 543 kts | 52° |
| 2026-05-06 03:04 | -35.05732 | -59.68342 | 38976 ft | 546 kts | 57° |
| 2026-05-06 03:04 | -35.02542 | -59.59864 | 38979 ft | 552 kts | 66° |
| 2026-05-06 03:05 | -35.00310 | -59.50918 | 38975 ft | 555 kts | 75° |
| 2026-05-06 03:05 | -34.98692 | -59.41748 | 38979 ft | 554 kts | 77° |
| 2026-05-06 03:06 | -34.97091 | -59.32587 | 38973 ft | 554 kts | 76° |
| 2026-05-06 03:06 | -34.95437 | -59.23443 | 38989 ft | 550 kts | 75° |
| 2026-05-06 03:06 | -34.94615 | -59.18964 | 38977 ft | 533 kts | 75° |
| 2026-05-06 03:07 | -34.93829 | -59.14679 | 38986 ft | 518 kts | 75° |
| 2026-05-06 03:07 | -34.92259 | -59.06186 | 38981 ft | 514 kts | 75° |
| 2026-05-06 03:07 | -34.91472 | -59.01929 | 38665 ft | 515 kts | 75° |
| 2026-05-06 03:08 | -34.90683 | -58.97675 | 37831 ft | 522 kts | 75° |
| 2026-05-06 03:08 | -34.89877 | -58.93359 | 37010 ft | 525 kts | 75° |
| 2026-05-06 03:08 | -34.89065 | -58.89004 | 36281 ft | 525 kts | 75° |
| 2026-05-06 03:08 | -34.88262 | -58.84710 | 35646 ft | 523 kts | 75° |
| 2026-05-06 03:09 | -34.87468 | -58.80447 | 35040 ft | 519 kts | 75° |
| 2026-05-06 03:09 | -34.86664 | -58.76156 | 34427 ft | 517 kts | 75° |
| 2026-05-06 03:09 | -34.85874 | -58.71951 | 33843 ft | 513 kts | 75° |
| 2026-05-06 03:09 | -34.85077 | -58.67707 | 33271 ft | 509 kts | 76° |
| 2026-05-06 03:10 | -34.84298 | -58.63567 | 32678 ft | 506 kts | 76° |
| 2026-05-06 03:10 | -34.83518 | -58.59434 | 32094 ft | 503 kts | 75° |
| 2026-05-06 03:10 | -34.82750 | -58.55319 | 31620 ft | 497 kts | 77° |
| 2026-05-06 03:10 | -34.82142 | -58.51200 | 31234 ft | 490 kts | 81° |
| 2026-05-06 03:11 | -34.81698 | -58.47165 | 30859 ft | 482 kts | 82° |
| 2026-05-06 03:11 | -34.81292 | -58.43137 | 30473 ft | 475 kts | 83° |
| 2026-05-06 03:11 | -34.80897 | -58.39150 | 30086 ft | 469 kts | 82° |
| 2026-05-06 03:11 | -34.80510 | -58.35263 | 29715 ft | 462 kts | 82° |
| 2026-05-06 03:12 | -34.80122 | -58.31432 | 29312 ft | 457 kts | 81° |
| 2026-05-06 03:12 | -34.79728 | -58.27601 | 28918 ft | 452 kts | 82° |
| 2026-05-06 03:12 | -34.79340 | -58.23872 | 28524 ft | 448 kts | 81° |
| 2026-05-06 03:12 | -34.78950 | -58.20139 | 28154 ft | 443 kts | 82° |
| 2026-05-06 03:13 | -34.78566 | -58.16446 | 27780 ft | 440 kts | 82° |
| 2026-05-06 03:13 | -34.78178 | -58.12756 | 27402 ft | 437 kts | 81° |
| 2026-05-06 03:13 | -34.77797 | -58.09138 | 27000 ft | 434 kts | 81° |
| 2026-05-06 03:13 | -34.77414 | -58.05528 | 26609 ft | 430 kts | 81° |
| 2026-05-06 03:14 | -34.77036 | -58.01946 | 26232 ft | 427 kts | 81° |
| 2026-05-06 03:14 | -34.76662 | -57.98420 | 25839 ft | 424 kts | 81° |
| 2026-05-06 03:14 | -34.76282 | -57.94855 | 25441 ft | 421 kts | 81° |
| 2026-05-06 03:14 | -34.75906 | -57.91334 | 25048 ft | 418 kts | 82° |
| 2026-05-06 03:15 | -34.75535 | -57.87866 | 24646 ft | 415 kts | 81° |
| 2026-05-06 03:15 | -34.75169 | -57.84439 | 24249 ft | 412 kts | 81° |
| 2026-05-06 03:15 | -34.74792 | -57.80952 | 23836 ft | 408 kts | 81° |
| 2026-05-06 03:15 | -34.74429 | -57.77585 | 23491 ft | 404 kts | 81° |
| 2026-05-06 03:16 | -34.74063 | -57.74192 | 23109 ft | 401 kts | 81° |
| 2026-05-06 03:16 | -34.73704 | -57.70885 | 22724 ft | 398 kts | 81° |
| 2026-05-06 03:16 | -34.73344 | -57.67556 | 22329 ft | 395 kts | 81° |
| 2026-05-06 03:16 | -34.72983 | -57.64240 | 21933 ft | 392 kts | 81° |
| 2026-05-06 03:17 | -34.72623 | -57.60961 | 21545 ft | 390 kts | 81° |
| 2026-05-06 03:17 | -34.72268 | -57.57713 | 21151 ft | 387 kts | 81° |
| 2026-05-06 03:17 | -34.71924 | -57.54535 | 20761 ft | 385 kts | 83° |
| 2026-05-06 03:17 | -34.71753 | -57.51291 | 20381 ft | 382 kts | 89° |
| 2026-05-06 03:18 | -34.71863 | -57.48069 | 20017 ft | 379 kts | 95° |
| 2026-05-06 03:18 | -34.72118 | -57.44923 | 19665 ft | 375 kts | 96° |
| 2026-05-06 03:18 | -34.72400 | -57.41795 | 19333 ft | 371 kts | 96° |
| 2026-05-06 03:18 | -34.72677 | -57.38707 | 18974 ft | 369 kts | 96° |
| 2026-05-06 03:19 | -34.72945 | -57.35638 | 18588 ft | 366 kts | 96° |
| 2026-05-06 03:19 | -34.73212 | -57.32518 | 18203 ft | 364 kts | 95° |
| 2026-05-06 03:19 | -34.73466 | -57.29500 | 17845 ft | 361 kts | 95° |
| 2026-05-06 03:19 | -34.73721 | -57.26443 | 17473 ft | 358 kts | 95° |
| 2026-05-06 03:20 | -34.74213 | -57.20473 | 16709 ft | 353 kts | 95° |
| 2026-05-06 03:20 | -34.74454 | -57.17541 | 16330 ft | 351 kts | 95° |
| 2026-05-06 03:20 | -34.74693 | -57.14615 | 15969 ft | 348 kts | 95° |
| 2026-05-06 03:21 | -34.74930 | -57.11710 | 15607 ft | 345 kts | 95° |
| 2026-05-06 03:21 | -34.75166 | -57.08813 | 15246 ft | 343 kts | 95° |
| 2026-05-06 03:21 | -34.75399 | -57.05941 | 14876 ft | 340 kts | 95° |
| 2026-05-06 03:21 | -34.75632 | -57.03053 | 14496 ft | 338 kts | 96° |
| 2026-05-06 03:22 | -34.75859 | -57.00230 | 14128 ft | 336 kts | 96° |
| 2026-05-06 03:22 | -34.76086 | -56.97417 | 13763 ft | 334 kts | 96° |
| 2026-05-06 03:22 | -34.76311 | -56.94603 | 13404 ft | 332 kts | 96° |
| 2026-05-06 03:22 | -34.76463 | -56.92713 | 13158 ft | 330 kts | 96° |
| 2026-05-06 03:23 | -34.76672 | -56.90144 | 12805 ft | 329 kts | 95° |
| 2026-05-06 03:23 | -34.76895 | -56.87353 | 12407 ft | 328 kts | 95° |
| 2026-05-06 03:23 | -34.77114 | -56.84607 | 12022 ft | 327 kts | 95° |
| 2026-05-06 03:23 | -34.77331 | -56.81862 | 11632 ft | 326 kts | 95° |
| 2026-05-06 03:24 | -34.77546 | -56.79135 | 11251 ft | 324 kts | 95° |
| 2026-05-06 03:24 | -34.77760 | -56.76418 | 10863 ft | 322 kts | 94° |
| 2026-05-06 03:24 | -34.77937 | -56.74155 | 10538 ft | 321 kts | 95° |
| 2026-05-06 03:24 | -34.78012 | -56.73337 | 10417 ft | 320 kts | 97° |
| 2026-05-06 03:25 | -34.78599 | -56.70765 | 10026 ft | 320 kts | 113° |
| 2026-05-06 03:25 | -34.79662 | -56.68454 | 9780 ft | 306 kts | 122° |
| 2026-05-06 03:25 | -34.80817 | -56.66295 | 9438 ft | 303 kts | 123° |
| 2026-05-06 03:25 | -34.81967 | -56.64181 | 9090 ft | 301 kts | 123° |
| 2026-05-06 03:26 | -34.83127 | -56.62029 | 8731 ft | 299 kts | 123° |
| 2026-05-06 03:26 | -34.84254 | -56.59919 | 8388 ft | 297 kts | 123° |
| 2026-05-06 03:26 | -34.85370 | -56.57815 | 8048 ft | 296 kts | 123° |
| 2026-05-06 03:26 | -34.86473 | -56.55727 | 7711 ft | 294 kts | 122° |
| 2026-05-06 03:27 | -34.87568 | -56.53649 | 7370 ft | 292 kts | 122° |
| 2026-05-06 03:27 | -34.88663 | -56.51566 | 7024 ft | 291 kts | 122° |
| 2026-05-06 03:27 | -34.89759 | -56.49479 | 6681 ft | 290 kts | 122° |
| 2026-05-06 03:27 | -34.90840 | -56.47417 | 6344 ft | 289 kts | 122° |
| 2026-05-06 03:28 | -34.91910 | -56.45379 | 6011 ft | 288 kts | 122° |
| 2026-05-06 03:28 | -34.92991 | -56.43317 | 5688 ft | 286 kts | 122° |
| 2026-05-06 03:28 | -34.94044 | -56.41305 | 5378 ft | 283 kts | 122° |
| 2026-05-06 03:28 | -34.95106 | -56.39276 | 5063 ft | 281 kts | 122° |
| 2026-05-06 03:29 | -34.96145 | -56.37288 | 4753 ft | 278 kts | 122° |
| 2026-05-06 03:29 | -34.97187 | -56.35294 | 4438 ft | 276 kts | 122° |
| 2026-05-06 03:29 | -34.98209 | -56.33337 | 4125 ft | 273 kts | 121° |
| 2026-05-06 03:29 | -34.99133 | -56.31364 | 3793 ft | 270 kts | 108° |
| 2026-05-06 03:30 | -34.99334 | -56.29123 | 3455 ft | 265 kts | 79° |
| 2026-05-06 03:30 | -34.98659 | -56.27101 | 3238 ft | 253 kts | 55° |
| 2026-05-06 03:30 | -34.97617 | -56.25438 | 3222 ft | 237 kts | 49° |
| 2026-05-06 03:30 | -34.96610 | -56.23947 | 3205 ft | 223 kts | 50° |
| 2026-05-06 03:31 | -34.95673 | -56.22507 | 3177 ft | 209 kts | 51° |
| 2026-05-06 03:31 | -34.94813 | -56.21131 | 3148 ft | 195 kts | 52° |
| 2026-05-06 03:31 | -34.94049 | -56.19879 | 3196 ft | 177 kts | 52° |
| 2026-05-06 03:31 | -34.93334 | -56.18696 | 2982 ft | 171 kts | 52° |
| 2026-05-06 03:32 | -34.92643 | -56.17554 | 2761 ft | 165 kts | 52° |
| 2026-05-06 03:32 | -34.91969 | -56.16439 | 2547 ft | 159 kts | 52° |
| 2026-05-06 03:32 | -34.91331 | -56.15386 | 2341 ft | 153 kts | 52° |
| 2026-05-06 03:32 | -34.90717 | -56.14372 | 2154 ft | 142 kts | 52° |
| 2026-05-06 03:33 | -34.90139 | -56.13420 | 1974 ft | 138 kts | 53° |
| 2026-05-06 03:33 | -34.89574 | -56.12490 | 1781 ft | 135 kts | 53° |
| 2026-05-06 03:33 | -34.89023 | -56.11583 | 1606 ft | 134 kts | 53° |
| 2026-05-06 03:33 | -34.88469 | -56.10670 | 1431 ft | 133 kts | 53° |
| 2026-05-06 03:34 | -34.87917 | -56.09762 | 1253 ft | 133 kts | 53° |
| 2026-05-06 03:34 | -34.87367 | -56.08857 | 1078 ft | 133 kts | 53° |
| 2026-05-06 03:34 | -34.86820 | -56.07959 | 903 ft | 132 kts | 53° |
| 2026-05-06 03:34 | -34.86275 | -56.07061 | 726 ft | 132 kts | 54° |
| 2026-05-06 03:35 | -34.85726 | -56.06160 | 552 ft | 131 kts | 54° |
| 2026-05-06 03:35 | -34.85189 | -56.05272 | 370 ft | 131 kts | 53° |
| 2026-05-06 03:35 | -34.84633 | -56.04390 | 221 ft | 131 kts | 53° |
| 2026-05-06 03:35 | -34.84087 | -56.03504 | 84 ft | 131 kts | 54° |
| 2026-05-06 03:36 | -34.83586 | -56.02684 | 73 ft | 97 kts | 54° |
| 2026-05-06 03:36 | -34.83287 | -56.02188 | 77 ft | 47 kts | 52° |
| 2026-05-06 03:36 | -34.83219 | -56.01989 | 81 ft | 17 kts | 106° |
| 2026-05-06 03:36 | -34.83297 | -56.01893 | 83 ft | 15 kts | 144° |
| 2026-05-06 03:37 | -34.83384 | -56.01816 | 83 ft | 15 kts | 144° |
| 2026-05-06 03:37 | -34.83486 | -56.01766 | 81 ft | 16 kts | 205° |
| 2026-05-06 03:37 | -34.83553 | -56.01858 | 78 ft | 13 kts | 233° |
| 2026-05-06 03:37 | -34.83595 | -56.01907 | 76 ft | 7 kts | 179° |
| 2026-05-06 03:38 | -34.83640 | -56.01870 | 75 ft | 7 kts | 143° |
| 2026-05-06 03:38 | -34.83653 | -56.01857 | 75 ft | 0 kts | 143° |